sensor_id;sensor_type;location;lat;lon;timestamp;P1;durP1;ratioP1;P2;durP2;ratioP2
37677;SDS011;23517;50.390;8.616;2024-03-22T00:02:15;25.88;;;17.35;;
37677;SDS011;23517;50.390;8.616;2024-03-22T00:04:43;26.23;;;17.40;;
37677;SDS011;23517;50.390;8.616;2024-03-22T00:07:09;25.45;;;16.42;;
37677;SDS011;23517;50.390;8.616;2024-03-22T00:09:36;23.00;;;16.25;;
37677;SDS011;23517;50.390;8.616;2024-03-22T00:12:02;25.30;;;16.92;;
37677;SDS011;23517;50.390;8.616;2024-03-22T00:14:31;26.50;;;16.70;;
37677;SDS011;23517;50.390;8.616;2024-03-22T00:16:57;22.52;;;15.40;;
37677;SDS011;23517;50.390;8.616;2024-03-22T00:19:23;25.02;;;16.65;;
37677;SDS011;23517;50.390;8.616;2024-03-22T00:21:49;21.92;;;15.35;;
37677;SDS011;23517;50.390;8.616;2024-03-22T00:24:15;25.02;;;17.55;;
37677;SDS011;23517;50.390;8.616;2024-03-22T00:26:41;23.90;;;16.63;;
37677;SDS011;23517;50.390;8.616;2024-03-22T00:29:07;24.20;;;16.83;;
37677;SDS011;23517;50.390;8.616;2024-03-22T00:31:33;23.30;;;15.93;;
37677;SDS011;23517;50.390;8.616;2024-03-22T00:33:59;22.92;;;16.60;;
37677;SDS011;23517;50.390;8.616;2024-03-22T00:36:25;21.60;;;15.10;;
37677;SDS011;23517;50.390;8.616;2024-03-22T00:38:51;25.92;;;16.15;;
37677;SDS011;23517;50.390;8.616;2024-03-22T00:41:17;21.90;;;15.45;;
37677;SDS011;23517;50.390;8.616;2024-03-22T00:43:43;20.88;;;14.98;;
37677;SDS011;23517;50.390;8.616;2024-03-22T00:46:11;20.33;;;13.70;;
37677;SDS011;23517;50.390;8.616;2024-03-22T00:48:37;22.85;;;14.50;;
37677;SDS011;23517;50.390;8.616;2024-03-22T00:51:03;19.80;;;14.13;;
37677;SDS011;23517;50.390;8.616;2024-03-22T00:53:29;20.45;;;13.98;;
37677;SDS011;23517;50.390;8.616;2024-03-22T00:55:55;21.92;;;14.65;;
37677;SDS011;23517;50.390;8.616;2024-03-22T00:58:25;24.02;;;14.95;;
37677;SDS011;23517;50.390;8.616;2024-03-22T01:00:53;22.23;;;14.77;;
37677;SDS011;23517;50.390;8.616;2024-03-22T01:03:20;21.42;;;15.23;;
37677;SDS011;23517;50.390;8.616;2024-03-22T01:05:46;21.15;;;13.70;;
37677;SDS011;23517;50.390;8.616;2024-03-22T01:08:12;23.55;;;14.23;;
37677;SDS011;23517;50.390;8.616;2024-03-22T01:10:38;21.13;;;14.02;;
37677;SDS011;23517;50.390;8.616;2024-03-22T01:13:04;21.27;;;13.63;;
37677;SDS011;23517;50.390;8.616;2024-03-22T01:15:30;23.55;;;12.88;;
37677;SDS011;23517;50.390;8.616;2024-03-22T01:17:56;18.17;;;12.23;;
37677;SDS011;23517;50.390;8.616;2024-03-22T01:20:23;19.27;;;13.02;;
37677;SDS011;23517;50.390;8.616;2024-03-22T01:22:49;18.55;;;12.52;;
37677;SDS011;23517;50.390;8.616;2024-03-22T01:25:15;21.95;;;13.43;;
37677;SDS011;23517;50.390;8.616;2024-03-22T01:27:41;20.73;;;13.40;;
37677;SDS011;23517;50.390;8.616;2024-03-22T01:30:07;19.58;;;12.88;;
37677;SDS011;23517;50.390;8.616;2024-03-22T01:32:35;20.15;;;12.48;;
37677;SDS011;23517;50.390;8.616;2024-03-22T01:35:02;18.95;;;12.90;;
37677;SDS011;23517;50.390;8.616;2024-03-22T01:37:29;18.48;;;12.23;;
37677;SDS011;23517;50.390;8.616;2024-03-22T01:39:56;20.90;;;13.13;;
37677;SDS011;23517;50.390;8.616;2024-03-22T01:42:23;19.40;;;11.75;;
37677;SDS011;23517;50.390;8.616;2024-03-22T01:44:49;18.35;;;12.60;;
37677;SDS011;23517;50.390;8.616;2024-03-22T01:47:16;16.90;;;11.77;;
37677;SDS011;23517;50.390;8.616;2024-03-22T01:49:43;18.30;;;12.32;;
37677;SDS011;23517;50.390;8.616;2024-03-22T01:52:09;17.27;;;11.98;;
37677;SDS011;23517;50.390;8.616;2024-03-22T01:54:35;17.33;;;11.43;;
37677;SDS011;23517;50.390;8.616;2024-03-22T01:57:01;14.32;;;10.45;;
37677;SDS011;23517;50.390;8.616;2024-03-22T01:59:28;14.93;;;11.07;;
37677;SDS011;23517;50.390;8.616;2024-03-22T02:01:58;19.52;;;12.90;;
37677;SDS011;23517;50.390;8.616;2024-03-22T02:04:26;16.83;;;11.77;;
37677;SDS011;23517;50.390;8.616;2024-03-22T02:06:53;17.40;;;12.00;;
37677;SDS011;23517;50.390;8.616;2024-03-22T02:09:19;17.20;;;11.25;;
37677;SDS011;23517;50.390;8.616;2024-03-22T02:11:53;16.98;;;11.20;;
37677;SDS011;23517;50.390;8.616;2024-03-22T02:14:20;20.00;;;12.07;;
37677;SDS011;23517;50.390;8.616;2024-03-22T02:16:46;18.70;;;11.63;;
37677;SDS011;23517;50.390;8.616;2024-03-22T02:19:12;18.05;;;12.00;;
37677;SDS011;23517;50.390;8.616;2024-03-22T02:21:38;15.27;;;10.68;;
37677;SDS011;23517;50.390;8.616;2024-03-22T02:24:04;20.92;;;11.27;;
37677;SDS011;23517;50.390;8.616;2024-03-22T02:26:31;17.67;;;10.68;;
37677;SDS011;23517;50.390;8.616;2024-03-22T02:28:58;20.70;;;11.27;;
37677;SDS011;23517;50.390;8.616;2024-03-22T02:31:26;21.13;;;11.82;;
37677;SDS011;23517;50.390;8.616;2024-03-22T02:33:52;18.42;;;11.32;;
37677;SDS011;23517;50.390;8.616;2024-03-22T02:36:18;16.27;;;11.23;;
37677;SDS011;23517;50.390;8.616;2024-03-22T02:38:44;17.92;;;11.35;;
37677;SDS011;23517;50.390;8.616;2024-03-22T02:41:09;18.50;;;10.68;;
37677;SDS011;23517;50.390;8.616;2024-03-22T02:43:36;17.88;;;11.18;;
37677;SDS011;23517;50.390;8.616;2024-03-22T02:46:06;17.60;;;10.90;;
37677;SDS011;23517;50.390;8.616;2024-03-22T02:48:33;17.70;;;10.65;;
37677;SDS011;23517;50.390;8.616;2024-03-22T02:50:58;17.63;;;11.20;;
37677;SDS011;23517;50.390;8.616;2024-03-22T02:53:24;16.25;;;10.55;;
37677;SDS011;23517;50.390;8.616;2024-03-22T02:55:50;16.65;;;10.52;;
37677;SDS011;23517;50.390;8.616;2024-03-22T02:58:17;19.42;;;11.10;;
37677;SDS011;23517;50.390;8.616;2024-03-22T03:00:45;19.00;;;10.10;;
37677;SDS011;23517;50.390;8.616;2024-03-22T03:03:11;17.05;;;10.98;;
37677;SDS011;23517;50.390;8.616;2024-03-22T03:05:37;18.02;;;10.75;;
37677;SDS011;23517;50.390;8.616;2024-03-22T03:08:03;17.60;;;10.45;;
37677;SDS011;23517;50.390;8.616;2024-03-22T03:10:29;16.92;;;10.63;;
37677;SDS011;23517;50.390;8.616;2024-03-22T03:12:55;17.70;;;10.65;;
37677;SDS011;23517;50.390;8.616;2024-03-22T03:15:21;13.82;;;10.15;;
37677;SDS011;23517;50.390;8.616;2024-03-22T03:17:47;18.13;;;10.73;;
37677;SDS011;23517;50.390;8.616;2024-03-22T03:20:13;13.50;;;9.38;;
37677;SDS011;23517;50.390;8.616;2024-03-22T03:22:39;20.35;;;9.90;;
37677;SDS011;23517;50.390;8.616;2024-03-22T03:25:06;15.80;;;9.80;;
37677;SDS011;23517;50.390;8.616;2024-03-22T03:27:34;17.30;;;10.05;;
37677;SDS011;23517;50.390;8.616;2024-03-22T03:30:00;19.60;;;9.55;;
37677;SDS011;23517;50.390;8.616;2024-03-22T03:32:26;16.38;;;10.57;;
37677;SDS011;23517;50.390;8.616;2024-03-22T03:34:55;17.42;;;9.82;;
37677;SDS011;23517;50.390;8.616;2024-03-22T03:37:21;16.52;;;9.77;;
37677;SDS011;23517;50.390;8.616;2024-03-22T03:39:48;13.73;;;8.77;;
37677;SDS011;23517;50.390;8.616;2024-03-22T03:42:14;16.00;;;9.23;;
37677;SDS011;23517;50.390;8.616;2024-03-22T03:44:40;14.85;;;9.30;;
37677;SDS011;23517;50.390;8.616;2024-03-22T03:47:06;14.25;;;8.68;;
37677;SDS011;23517;50.390;8.616;2024-03-22T03:49:33;14.55;;;8.63;;
37677;SDS011;23517;50.390;8.616;2024-03-22T03:52:00;16.23;;;8.63;;
37677;SDS011;23517;50.390;8.616;2024-03-22T03:54:26;14.35;;;8.80;;
37677;SDS011;23517;50.390;8.616;2024-03-22T03:56:53;15.10;;;8.75;;
37677;SDS011;23517;50.390;8.616;2024-03-22T03:59:18;16.42;;;9.55;;
37677;SDS011;23517;50.390;8.616;2024-03-22T04:01:49;17.45;;;8.48;;
37677;SDS011;23517;50.390;8.616;2024-03-22T04:04:14;14.27;;;8.82;;
37677;SDS011;23517;50.390;8.616;2024-03-22T04:06:40;15.70;;;9.02;;
37677;SDS011;23517;50.390;8.616;2024-03-22T04:09:06;18.75;;;9.20;;
37677;SDS011;23517;50.390;8.616;2024-03-22T04:11:32;14.05;;;9.05;;
37677;SDS011;23517;50.390;8.616;2024-03-22T04:14:01;22.08;;;13.50;;
37677;SDS011;23517;50.390;8.616;2024-03-22T04:16:26;27.23;;;15.73;;
37677;SDS011;23517;50.390;8.616;2024-03-22T04:18:52;31.45;;;17.88;;
37677;SDS011;23517;50.390;8.616;2024-03-22T04:21:18;32.75;;;18.60;;
37677;SDS011;23517;50.390;8.616;2024-03-22T04:23:47;34.30;;;18.98;;
37677;SDS011;23517;50.390;8.616;2024-03-22T04:26:14;28.42;;;16.38;;
37677;SDS011;23517;50.390;8.616;2024-03-22T04:28:40;25.23;;;15.15;;
37677;SDS011;23517;50.390;8.616;2024-03-22T04:31:08;25.73;;;14.65;;
37677;SDS011;23517;50.390;8.616;2024-03-22T04:33:34;24.20;;;15.02;;
37677;SDS011;23517;50.390;8.616;2024-03-22T04:36:03;18.10;;;10.93;;
37677;SDS011;23517;50.390;8.616;2024-03-22T04:38:32;19.33;;;10.77;;
37677;SDS011;23517;50.390;8.616;2024-03-22T04:40:58;15.75;;;9.00;;
37677;SDS011;23517;50.390;8.616;2024-03-22T04:43:27;15.68;;;9.35;;
37677;SDS011;23517;50.390;8.616;2024-03-22T04:45:53;13.73;;;8.57;;
37677;SDS011;23517;50.390;8.616;2024-03-22T04:48:20;12.85;;;7.10;;
37677;SDS011;23517;50.390;8.616;2024-03-22T04:50:49;13.15;;;7.40;;
37677;SDS011;23517;50.390;8.616;2024-03-22T04:53:17;12.38;;;6.90;;
37677;SDS011;23517;50.390;8.616;2024-03-22T04:55:47;10.82;;;6.50;;
37677;SDS011;23517;50.390;8.616;2024-03-22T04:58:14;11.55;;;5.97;;
37677;SDS011;23517;50.390;8.616;2024-03-22T05:00:43;11.05;;;6.50;;
37677;SDS011;23517;50.390;8.616;2024-03-22T05:03:12;13.27;;;7.63;;
37677;SDS011;23517;50.390;8.616;2024-03-22T05:05:41;30.67;;;15.38;;
37677;SDS011;23517;50.390;8.616;2024-03-22T05:08:08;56.80;;;27.35;;
37677;SDS011;23517;50.390;8.616;2024-03-22T05:10:35;60.30;;;30.88;;
37677;SDS011;23517;50.390;8.616;2024-03-22T05:13:02;43.03;;;24.38;;
37677;SDS011;23517;50.390;8.616;2024-03-22T05:15:30;37.33;;;19.58;;
37677;SDS011;23517;50.390;8.616;2024-03-22T05:17:59;25.55;;;14.68;;
37677;SDS011;23517;50.390;8.616;2024-03-22T05:20:25;19.92;;;11.43;;
37677;SDS011;23517;50.390;8.616;2024-03-22T05:22:51;10.98;;;7.78;;
37677;SDS011;23517;50.390;8.616;2024-03-22T05:25:18;13.30;;;7.45;;
37677;SDS011;23517;50.390;8.616;2024-03-22T05:27:44;11.50;;;7.10;;
37677;SDS011;23517;50.390;8.616;2024-03-22T05:30:11;11.43;;;7.07;;
37677;SDS011;23517;50.390;8.616;2024-03-22T05:32:38;11.57;;;6.47;;
37677;SDS011;23517;50.390;8.616;2024-03-22T05:35:09;12.88;;;6.40;;
37677;SDS011;23517;50.390;8.616;2024-03-22T05:37:37;10.88;;;6.13;;
37677;SDS011;23517;50.390;8.616;2024-03-22T05:40:03;11.38;;;5.75;;
37677;SDS011;23517;50.390;8.616;2024-03-22T05:42:30;8.27;;;5.78;;
37677;SDS011;23517;50.390;8.616;2024-03-22T05:44:58;11.20;;;5.80;;
37677;SDS011;23517;50.390;8.616;2024-03-22T05:47:24;9.13;;;5.75;;
37677;SDS011;23517;50.390;8.616;2024-03-22T05:49:51;10.68;;;5.85;;
37677;SDS011;23517;50.390;8.616;2024-03-22T05:52:17;11.30;;;5.97;;
37677;SDS011;23517;50.390;8.616;2024-03-22T05:54:44;8.70;;;5.72;;
37677;SDS011;23517;50.390;8.616;2024-03-22T05:57:11;8.30;;;5.75;;
37677;SDS011;23517;50.390;8.616;2024-03-22T05:59:37;9.95;;;5.68;;
37677;SDS011;23517;50.390;8.616;2024-03-22T06:02:05;8.57;;;5.55;;
37677;SDS011;23517;50.390;8.616;2024-03-22T06:04:31;9.90;;;6.38;;
37677;SDS011;23517;50.390;8.616;2024-03-22T06:06:57;11.43;;;6.38;;
37677;SDS011;23517;50.390;8.616;2024-03-22T06:09:28;10.20;;;6.07;;
37677;SDS011;23517;50.390;8.616;2024-03-22T06:12:05;8.63;;;5.00;;
37677;SDS011;23517;50.390;8.616;2024-03-22T06:14:31;9.80;;;5.47;;
37677;SDS011;23517;50.390;8.616;2024-03-22T06:16:57;8.05;;;4.97;;
37677;SDS011;23517;50.390;8.616;2024-03-22T06:19:23;9.20;;;5.10;;
37677;SDS011;23517;50.390;8.616;2024-03-22T06:21:49;8.60;;;4.72;;
37677;SDS011;23517;50.390;8.616;2024-03-22T06:24:16;7.28;;;4.47;;
37677;SDS011;23517;50.390;8.616;2024-03-22T06:26:42;10.07;;;4.65;;
37677;SDS011;23517;50.390;8.616;2024-03-22T06:29:08;9.20;;;4.40;;
37677;SDS011;23517;50.390;8.616;2024-03-22T06:31:38;7.72;;;4.57;;
37677;SDS011;23517;50.390;8.616;2024-03-22T06:34:04;9.45;;;4.57;;
37677;SDS011;23517;50.390;8.616;2024-03-22T06:36:31;12.77;;;4.88;;
37677;SDS011;23517;50.390;8.616;2024-03-22T06:39:01;8.52;;;4.65;;
37677;SDS011;23517;50.390;8.616;2024-03-22T06:41:31;8.88;;;4.82;;
37677;SDS011;23517;50.390;8.616;2024-03-22T06:43:57;10.43;;;5.45;;
37677;SDS011;23517;50.390;8.616;2024-03-22T06:46:23;10.75;;;6.32;;
37677;SDS011;23517;50.390;8.616;2024-03-22T06:48:52;11.77;;;5.97;;
37677;SDS011;23517;50.390;8.616;2024-03-22T06:51:20;11.75;;;6.70;;
37677;SDS011;23517;50.390;8.616;2024-03-22T06:53:46;11.82;;;6.22;;
37677;SDS011;23517;50.390;8.616;2024-03-22T06:56:15;23.45;;;11.90;;
37677;SDS011;23517;50.390;8.616;2024-03-22T06:58:41;15.50;;;8.60;;
37677;SDS011;23517;50.390;8.616;2024-03-22T07:01:07;16.52;;;9.02;;
37677;SDS011;23517;50.390;8.616;2024-03-22T07:03:33;12.65;;;7.72;;
37677;SDS011;23517;50.390;8.616;2024-03-22T07:05:59;26.52;;;13.48;;
37677;SDS011;23517;50.390;8.616;2024-03-22T07:08:26;12.60;;;7.15;;
37677;SDS011;23517;50.390;8.616;2024-03-22T07:10:53;10.30;;;5.90;;
37677;SDS011;23517;50.390;8.616;2024-03-22T07:13:20;11.48;;;6.20;;
37677;SDS011;23517;50.390;8.616;2024-03-22T07:15:47;39.83;;;17.95;;
37677;SDS011;23517;50.390;8.616;2024-03-22T07:18:13;21.52;;;12.68;;
37677;SDS011;23517;50.390;8.616;2024-03-22T07:20:40;18.13;;;12.30;;
37677;SDS011;23517;50.390;8.616;2024-03-22T07:23:10;23.17;;;14.10;;
37677;SDS011;23517;50.390;8.616;2024-03-22T07:25:37;23.05;;;15.13;;
37677;SDS011;23517;50.390;8.616;2024-03-22T07:28:03;23.10;;;15.57;;
37677;SDS011;23517;50.390;8.616;2024-03-22T07:30:29;22.52;;;14.85;;
37677;SDS011;23517;50.390;8.616;2024-03-22T07:32:54;22.65;;;15.43;;
37677;SDS011;23517;50.390;8.616;2024-03-22T07:35:20;22.80;;;14.18;;
37677;SDS011;23517;50.390;8.616;2024-03-22T07:37:47;24.40;;;14.82;;
37677;SDS011;23517;50.390;8.616;2024-03-22T07:40:15;23.80;;;15.38;;
37677;SDS011;23517;50.390;8.616;2024-03-22T07:42:41;22.85;;;13.63;;
37677;SDS011;23517;50.390;8.616;2024-03-22T07:45:07;23.20;;;13.88;;
37677;SDS011;23517;50.390;8.616;2024-03-22T07:47:34;19.38;;;12.90;;
37677;SDS011;23517;50.390;8.616;2024-03-22T07:49:59;21.52;;;14.00;;
37677;SDS011;23517;50.390;8.616;2024-03-22T07:52:25;20.90;;;13.85;;
37677;SDS011;23517;50.390;8.616;2024-03-22T07:54:51;19.75;;;13.82;;
37677;SDS011;23517;50.390;8.616;2024-03-22T07:57:17;22.00;;;14.70;;
37677;SDS011;23517;50.390;8.616;2024-03-22T07:59:43;26.13;;;15.50;;
37677;SDS011;23517;50.390;8.616;2024-03-22T08:02:09;22.10;;;15.25;;
37677;SDS011;23517;50.390;8.616;2024-03-22T08:04:35;25.92;;;15.20;;
37677;SDS011;23517;50.390;8.616;2024-03-22T08:07:01;22.17;;;15.18;;
37677;SDS011;23517;50.390;8.616;2024-03-22T08:09:27;22.30;;;14.43;;
37677;SDS011;23517;50.390;8.616;2024-03-22T08:11:53;19.48;;;13.80;;
37677;SDS011;23517;50.390;8.616;2024-03-22T08:14:20;22.83;;;15.10;;
37677;SDS011;23517;50.390;8.616;2024-03-22T08:16:47;25.67;;;16.35;;
37677;SDS011;23517;50.390;8.616;2024-03-22T08:19:14;23.90;;;15.35;;
37677;SDS011;23517;50.390;8.616;2024-03-22T08:21:41;23.48;;;15.48;;
37677;SDS011;23517;50.390;8.616;2024-03-22T08:24:08;21.98;;;15.43;;
37677;SDS011;23517;50.390;8.616;2024-03-22T08:26:34;23.55;;;15.48;;
37677;SDS011;23517;50.390;8.616;2024-03-22T08:29:00;21.70;;;15.30;;
37677;SDS011;23517;50.390;8.616;2024-03-22T08:31:26;24.15;;;15.32;;
37677;SDS011;23517;50.390;8.616;2024-03-22T08:33:54;22.48;;;15.55;;
37677;SDS011;23517;50.390;8.616;2024-03-22T08:36:21;22.50;;;15.57;;
37677;SDS011;23517;50.390;8.616;2024-03-22T08:38:51;23.48;;;15.45;;
37677;SDS011;23517;50.390;8.616;2024-03-22T08:41:17;24.05;;;16.25;;
37677;SDS011;23517;50.390;8.616;2024-03-22T08:43:43;22.58;;;15.75;;
37677;SDS011;23517;50.390;8.616;2024-03-22T08:46:09;22.25;;;14.70;;
37677;SDS011;23517;50.390;8.616;2024-03-22T08:48:37;22.25;;;15.45;;
37677;SDS011;23517;50.390;8.616;2024-03-22T08:51:06;21.13;;;14.82;;
37677;SDS011;23517;50.390;8.616;2024-03-22T08:53:34;24.42;;;15.95;;
37677;SDS011;23517;50.390;8.616;2024-03-22T08:56:01;21.80;;;15.18;;
37677;SDS011;23517;50.390;8.616;2024-03-22T08:58:27;21.92;;;16.70;;
37677;SDS011;23517;50.390;8.616;2024-03-22T09:00:54;25.70;;;15.65;;
37677;SDS011;23517;50.390;8.616;2024-03-22T09:03:20;25.45;;;16.23;;
37677;SDS011;23517;50.390;8.616;2024-03-22T09:05:46;22.40;;;16.10;;
37677;SDS011;23517;50.390;8.616;2024-03-22T09:08:12;19.98;;;15.52;;
37677;SDS011;23517;50.390;8.616;2024-03-22T09:10:40;23.60;;;15.38;;
37677;SDS011;23517;50.390;8.616;2024-03-22T09:13:05;20.77;;;14.63;;
37677;SDS011;23517;50.390;8.616;2024-03-22T09:15:31;20.15;;;14.70;;
37677;SDS011;23517;50.390;8.616;2024-03-22T09:18:01;19.30;;;14.30;;
37677;SDS011;23517;50.390;8.616;2024-03-22T09:20:27;20.73;;;13.90;;
37677;SDS011;23517;50.390;8.616;2024-03-22T09:22:56;17.42;;;12.75;;
37677;SDS011;23517;50.390;8.616;2024-03-22T09:25:27;16.10;;;12.95;;
37677;SDS011;23517;50.390;8.616;2024-03-22T09:27:53;17.33;;;13.07;;
37677;SDS011;23517;50.390;8.616;2024-03-22T09:30:19;14.75;;;11.43;;
37677;SDS011;23517;50.390;8.616;2024-03-22T09:32:44;18.27;;;12.32;;
37677;SDS011;23517;50.390;8.616;2024-03-22T09:35:10;17.27;;;12.40;;
37677;SDS011;23517;50.390;8.616;2024-03-22T09:37:40;14.95;;;9.77;;
37677;SDS011;23517;50.390;8.616;2024-03-22T09:40:06;11.18;;;7.43;;
37677;SDS011;23517;50.390;8.616;2024-03-22T09:42:36;11.65;;;7.68;;
37677;SDS011;23517;50.390;8.616;2024-03-22T09:45:09;13.43;;;7.28;;
37677;SDS011;23517;50.390;8.616;2024-03-22T09:47:36;12.02;;;8.13;;
37677;SDS011;23517;50.390;8.616;2024-03-22T09:50:04;13.75;;;8.77;;
37677;SDS011;23517;50.390;8.616;2024-03-22T09:52:32;10.45;;;7.47;;
37677;SDS011;23517;50.390;8.616;2024-03-22T09:55:00;10.23;;;7.68;;
37677;SDS011;23517;50.390;8.616;2024-03-22T09:57:34;10.27;;;6.82;;
37677;SDS011;23517;50.390;8.616;2024-03-22T10:00:08;12.05;;;6.85;;
37677;SDS011;23517;50.390;8.616;2024-03-22T10:02:41;8.30;;;6.30;;
37677;SDS011;23517;50.390;8.616;2024-03-22T10:05:47;12.30;;;7.78;;
37677;SDS011;23517;50.390;8.616;2024-03-22T10:08:13;21.13;;;15.07;;
37677;SDS011;23517;50.390;8.616;2024-03-22T10:10:39;10.43;;;8.07;;
37677;SDS011;23517;50.390;8.616;2024-03-22T10:13:12;12.13;;;9.57;;
37677;SDS011;23517;50.390;8.616;2024-03-22T10:15:38;15.02;;;9.60;;
37677;SDS011;23517;50.390;8.616;2024-03-22T10:18:03;13.30;;;9.02;;
37677;SDS011;23517;50.390;8.616;2024-03-22T10:20:29;10.95;;;7.30;;
37677;SDS011;23517;50.390;8.616;2024-03-22T10:22:56;9.57;;;7.03;;
37677;SDS011;23517;50.390;8.616;2024-03-22T10:25:25;12.57;;;8.68;;
37677;SDS011;23517;50.390;8.616;2024-03-22T10:27:57;10.13;;;7.03;;
37677;SDS011;23517;50.390;8.616;2024-03-22T10:30:24;11.95;;;8.07;;
37677;SDS011;23517;50.390;8.616;2024-03-22T10:32:51;12.32;;;8.45;;
37677;SDS011;23517;50.390;8.616;2024-03-22T10:35:18;9.15;;;6.70;;
37677;SDS011;23517;50.390;8.616;2024-03-22T10:37:44;16.65;;;10.13;;
37677;SDS011;23517;50.390;8.616;2024-03-22T10:40:10;9.32;;;6.28;;
37677;SDS011;23517;50.390;8.616;2024-03-22T10:42:37;11.63;;;6.50;;
37677;SDS011;23517;50.390;8.616;2024-03-22T10:45:05;9.23;;;5.90;;
37677;SDS011;23517;50.390;8.616;2024-03-22T10:47:36;8.70;;;5.65;;
37677;SDS011;23517;50.390;8.616;2024-03-22T10:55:12;11.00;;;6.00;;
37677;SDS011;23517;50.390;8.616;2024-03-22T10:57:59;8.27;;;5.55;;
37677;SDS011;23517;50.390;8.616;2024-03-22T11:00:27;10.52;;;6.18;;
37677;SDS011;23517;50.390;8.616;2024-03-22T11:02:57;22.33;;;13.30;;
37677;SDS011;23517;50.390;8.616;2024-03-22T11:05:23;13.55;;;8.55;;
37677;SDS011;23517;50.390;8.616;2024-03-22T11:08:03;8.98;;;5.60;;
37677;SDS011;23517;50.390;8.616;2024-03-22T11:10:30;8.90;;;4.90;;
37677;SDS011;23517;50.390;8.616;2024-03-22T11:13:06;12.98;;;6.18;;
37677;SDS011;23517;50.390;8.616;2024-03-22T11:15:32;6.85;;;4.95;;
37677;SDS011;23517;50.390;8.616;2024-03-22T11:17:59;8.73;;;5.13;;
37677;SDS011;23517;50.390;8.616;2024-03-22T11:20:27;7.47;;;4.28;;
37677;SDS011;23517;50.390;8.616;2024-03-22T11:22:55;9.70;;;5.25;;
37677;SDS011;23517;50.390;8.616;2024-03-22T11:25:21;5.30;;;4.25;;
37677;SDS011;23517;50.390;8.616;2024-03-22T11:27:47;6.75;;;5.10;;
37677;SDS011;23517;50.390;8.616;2024-03-22T11:30:15;12.43;;;8.27;;
37677;SDS011;23517;50.390;8.616;2024-03-22T11:32:43;7.22;;;4.47;;
37677;SDS011;23517;50.390;8.616;2024-03-22T11:35:13;11.43;;;7.93;;
37677;SDS011;23517;50.390;8.616;2024-03-22T11:37:41;11.27;;;5.63;;
37677;SDS011;23517;50.390;8.616;2024-03-22T11:40:11;10.10;;;5.65;;
37677;SDS011;23517;50.390;8.616;2024-03-22T11:42:38;6.28;;;4.95;;
37677;SDS011;23517;50.390;8.616;2024-03-22T11:45:07;10.32;;;6.43;;
37677;SDS011;23517;50.390;8.616;2024-03-22T11:47:36;7.30;;;5.40;;
37677;SDS011;23517;50.390;8.616;2024-03-22T11:50:04;10.40;;;5.45;;
37677;SDS011;23517;50.390;8.616;2024-03-22T11:52:30;6.68;;;4.57;;
37677;SDS011;23517;50.390;8.616;2024-03-22T11:54:57;8.75;;;6.55;;
37677;SDS011;23517;50.390;8.616;2024-03-22T11:57:24;9.90;;;6.45;;
37677;SDS011;23517;50.390;8.616;2024-03-22T11:59:51;10.70;;;5.82;;
37677;SDS011;23517;50.390;8.616;2024-03-22T12:02:17;7.43;;;5.30;;
37677;SDS011;23517;50.390;8.616;2024-03-22T12:04:45;10.40;;;6.25;;
37677;SDS011;23517;50.390;8.616;2024-03-22T12:07:13;8.82;;;6.45;;
37677;SDS011;23517;50.390;8.616;2024-03-22T12:09:41;8.13;;;6.47;;
37677;SDS011;23517;50.390;8.616;2024-03-22T12:12:08;9.75;;;6.35;;
37677;SDS011;23517;50.390;8.616;2024-03-22T12:14:36;11.40;;;6.18;;
37677;SDS011;23517;50.390;8.616;2024-03-22T12:17:02;9.68;;;6.72;;
37677;SDS011;23517;50.390;8.616;2024-03-22T12:19:28;10.13;;;6.20;;
37677;SDS011;23517;50.390;8.616;2024-03-22T12:21:55;10.07;;;6.53;;
37677;SDS011;23517;50.390;8.616;2024-03-22T12:24:21;11.13;;;6.63;;
37677;SDS011;23517;50.390;8.616;2024-03-22T12:26:51;9.77;;;5.63;;
37677;SDS011;23517;50.390;8.616;2024-03-22T12:29:16;11.32;;;7.07;;
37677;SDS011;23517;50.390;8.616;2024-03-22T12:31:44;10.80;;;6.50;;
37677;SDS011;23517;50.390;8.616;2024-03-22T12:34:11;14.63;;;8.40;;
37677;SDS011;23517;50.390;8.616;2024-03-22T12:36:37;11.25;;;6.53;;
37677;SDS011;23517;50.390;8.616;2024-03-22T12:39:04;10.82;;;6.85;;
37677;SDS011;23517;50.390;8.616;2024-03-22T12:41:32;12.20;;;6.47;;
37677;SDS011;23517;50.390;8.616;2024-03-22T12:43:58;8.07;;;5.88;;
37677;SDS011;23517;50.390;8.616;2024-03-22T12:46:26;10.65;;;5.50;;
37677;SDS011;23517;50.390;8.616;2024-03-22T12:48:52;7.55;;;4.90;;
37677;SDS011;23517;50.390;8.616;2024-03-22T12:51:19;10.27;;;5.63;;
37677;SDS011;23517;50.390;8.616;2024-03-22T12:53:45;12.65;;;6.72;;
37677;SDS011;23517;50.390;8.616;2024-03-22T12:56:12;7.28;;;4.65;;
37677;SDS011;23517;50.390;8.616;2024-03-22T12:58:37;7.72;;;4.80;;
37677;SDS011;23517;50.390;8.616;2024-03-22T13:01:08;7.68;;;4.10;;
37677;SDS011;23517;50.390;8.616;2024-03-22T13:03:38;8.82;;;4.22;;
37677;SDS011;23517;50.390;8.616;2024-03-22T13:06:04;7.93;;;4.40;;
37677;SDS011;23517;50.390;8.616;2024-03-22T13:08:31;7.30;;;4.25;;
37677;SDS011;23517;50.390;8.616;2024-03-22T13:10:57;7.88;;;4.65;;
37677;SDS011;23517;50.390;8.616;2024-03-22T13:13:26;6.72;;;4.25;;
37677;SDS011;23517;50.390;8.616;2024-03-22T13:15:52;10.00;;;5.05;;
37677;SDS011;23517;50.390;8.616;2024-03-22T13:18:18;13.20;;;4.80;;
37677;SDS011;23517;50.390;8.616;2024-03-22T13:20:46;7.32;;;4.70;;
37677;SDS011;23517;50.390;8.616;2024-03-22T13:23:13;5.32;;;4.32;;
37677;SDS011;23517;50.390;8.616;2024-03-22T13:25:39;6.43;;;4.57;;
37677;SDS011;23517;50.390;8.616;2024-03-22T13:28:06;6.85;;;4.15;;
37677;SDS011;23517;50.390;8.616;2024-03-22T13:30:32;6.70;;;4.22;;
37677;SDS011;23517;50.390;8.616;2024-03-22T13:33:00;10.63;;;6.25;;
37677;SDS011;23517;50.390;8.616;2024-03-22T13:35:26;8.30;;;4.35;;
37677;SDS011;23517;50.390;8.616;2024-03-22T13:37:52;18.25;;;11.68;;
37677;SDS011;23517;50.390;8.616;2024-03-22T13:40:21;9.77;;;5.65;;
37677;SDS011;23517;50.390;8.616;2024-03-22T13:42:47;8.38;;;4.45;;
37677;SDS011;23517;50.390;8.616;2024-03-22T13:45:13;6.85;;;4.90;;
37677;SDS011;23517;50.390;8.616;2024-03-22T13:47:39;6.68;;;4.70;;
37677;SDS011;23517;50.390;8.616;2024-03-22T13:50:08;7.70;;;4.43;;
37677;SDS011;23517;50.390;8.616;2024-03-22T13:52:35;5.25;;;3.75;;
37677;SDS011;23517;50.390;8.616;2024-03-22T13:55:03;7.35;;;3.97;;
37677;SDS011;23517;50.390;8.616;2024-03-22T13:57:31;8.20;;;4.82;;
37677;SDS011;23517;50.390;8.616;2024-03-22T13:59:58;7.07;;;4.05;;
37677;SDS011;23517;50.390;8.616;2024-03-22T14:02:27;6.57;;;3.90;;
37677;SDS011;23517;50.390;8.616;2024-03-22T14:04:53;5.88;;;4.10;;
37677;SDS011;23517;50.390;8.616;2024-03-22T14:07:19;10.38;;;4.25;;
37677;SDS011;23517;50.390;8.616;2024-03-22T14:09:46;7.85;;;3.88;;
37677;SDS011;23517;50.390;8.616;2024-03-22T14:12:12;6.90;;;4.03;;
37677;SDS011;23517;50.390;8.616;2024-03-22T14:14:38;7.15;;;3.78;;
37677;SDS011;23517;50.390;8.616;2024-03-22T14:17:05;5.75;;;3.80;;
37677;SDS011;23517;50.390;8.616;2024-03-22T14:19:31;5.63;;;3.28;;
37677;SDS011;23517;50.390;8.616;2024-03-22T14:21:57;6.32;;;3.97;;
37677;SDS011;23517;50.390;8.616;2024-03-22T14:24:22;7.78;;;3.83;;
37677;SDS011;23517;50.390;8.616;2024-03-22T14:26:48;9.40;;;4.35;;
37677;SDS011;23517;50.390;8.616;2024-03-22T14:29:15;9.15;;;4.55;;
37677;SDS011;23517;50.390;8.616;2024-03-22T14:31:41;6.13;;;3.42;;
37677;SDS011;23517;50.390;8.616;2024-03-22T14:34:08;13.43;;;4.80;;
37677;SDS011;23517;50.390;8.616;2024-03-22T14:36:38;15.10;;;7.72;;